Time;durP1;ratioP1;P1;durP2;ratioP2;P2;SDS_P1;SDS_P2;PMS_P1;PMS_P2;Temp;Humidity;BMP_temperature;BMP_pressure;BME280_temperature;BME280_humidity;BME280_pressure;Samples;Min_cycle;Max_cycle;Signal;HPM_P1;HPM_P2
2023/01/07 00:01:01;;;;;;;4.60;4.05;;;;;;;10.68;69.31;100019.34;4981437;28;20180;-84
2023/01/07 00:03:26;;;;;;;6.80;3.78;;;;;;;10.68;69.25;100021.13;4982356;28;20477;-84
2023/01/07 00:05:57;;;;;;;10.57;7.17;;;;;;;10.67;69.20;100022.91;4983111;28;20220;-83
2023/01/07 00:08:23;;;;;;;9.23;6.38;;;;;;;10.65;69.34;100019.53;4982781;28;20256;-84
2023/01/07 00:10:48;;;;;;;8.57;7.10;;;;;;;10.63;69.51;100016.13;4983459;28;20172;-84
2023/01/07 00:13:13;;;;;;;10.90;6.90;;;;;;;10.62;69.23;100017.91;4983590;28;20379;-84
2023/01/07 00:15:39;;;;;;;11.03;6.80;;;;;;;10.61;69.27;100020.63;4984953;28;20177;-83
2023/01/07 00:18:04;;;;;;;10.23;6.33;;;;;;;10.60;69.40;100008.44;4983430;28;20550;-84
2023/01/07 00:20:30;;;;;;;8.50;6.80;;;;;;;10.59;69.49;100007.59;4985560;28;20183;-84
2023/01/07 00:22:55;;;;;;;7.27;5.60;;;;;;;10.58;69.43;100007.66;4982338;28;20187;-83
2023/01/07 00:25:21;;;;;;;4.73;4.07;;;;;;;10.55;69.46;99997.34;4981378;28;20324;-84
2023/01/07 00:27:46;;;;;;;5.83;4.27;;;;;;;10.51;69.70;100003.72;4985102;28;20202;-83
2023/01/07 00:30:13;;;;;;;3.90;3.30;;;;;;;10.47;69.78;99991.69;4970069;28;20208;-84
2023/01/07 00:35:23;;;;;;;4.03;3.08;;;;;;;10.46;69.91;99990.00;4986300;28;20684;-84
2023/01/07 00:37:53;;;;;;;4.97;3.87;;;;;;;10.46;69.70;99985.56;4947513;28;20233;-83
2023/01/07 00:40:19;;;;;;;5.47;3.65;;;;;;;10.48;69.73;99980.25;4947641;28;20230;-84
2023/01/07 00:42:54;;;;;;;7.95;3.90;;;;;;;10.49;69.66;99981.94;4948086;29;20190;-84
2023/01/07 00:45:24;;;;;;;3.70;3.22;;;;;;;10.48;69.76;99982.88;4947043;29;20304;-84
2023/01/07 00:47:53;;;;;;;4.25;3.17;;;;;;;10.48;69.61;99981.09;4948625;29;20290;-85
2023/01/07 00:50:24;;;;;;;4.72;3.78;;;;;;;10.49;69.74;99976.69;4948933;29;20308;-85
2023/01/07 00:52:49;;;;;;;4.25;3.15;;;;;;;10.46;69.70;99974.22;4946344;29;20244;-85
2023/01/07 00:55:15;;;;;;;3.90;3.50;;;;;;;10.44;69.66;99971.69;4943544;29;20174;-84
2023/01/07 00:57:42;;;;;;;3.93;3.53;;;;;;;10.39;69.87;99961.44;4943547;29;20208;-83
2023/01/07 01:00:13;;;;;;;5.32;3.25;;;;;;;10.37;69.80;99965.94;4942263;29;20461;-84
2023/01/07 01:02:39;;;;;;;5.55;3.05;;;;;;;10.35;70.04;99964.34;4942566;29;20631;-86
2023/01/07 01:05:07;;;;;;;5.30;3.90;;;;;;;10.35;70.08;99966.97;4943619;29;20202;-83
2023/01/07 01:07:34;;;;;;;6.57;4.28;;;;;;;10.34;69.96;99968.75;4927310;29;20206;-83
2023/01/07 01:09:59;;;;;;;5.07;4.57;;;;;;;10.35;70.07;99959.94;4943037;29;20178;-84
2023/01/07 01:12:25;;;;;;;4.57;3.53;;;;;;;10.35;69.91;99962.56;4944488;29;20245;-83
2023/01/07 01:14:50;;;;;;;7.03;4.30;;;;;;;10.36;69.97;99964.22;4944174;29;20186;-83
2023/01/07 01:17:16;;;;;;;11.83;4.70;;;;;;;10.39;70.05;99963.22;4943164;29;20584;-85
2023/01/07 01:19:41;;;;;;;7.00;5.20;;;;;;;10.39;69.81;99961.44;4943849;29;20182;-83
2023/01/07 01:22:07;;;;;;;5.37;3.80;;;;;;;10.41;69.97;99954.31;4942963;29;20185;-84
2023/01/07 01:24:32;;;;;;;6.30;4.90;;;;;;;10.44;69.94;99955.94;4943847;29;20372;-85
2023/01/07 01:26:58;;;;;;;5.20;4.70;;;;;;;10.45;69.67;99946.25;4942778;29;20213;-85
2023/01/07 01:29:23;;;;;;;6.33;4.10;;;;;;;10.44;69.87;99949.84;4945366;29;20186;-83
2023/01/07 01:31:49;;;;;;;5.50;4.40;;;;;;;10.45;69.85;99943.63;4943730;29;20202;-85
2023/01/07 01:34:16;;;;;;;4.30;3.90;;;;;;;10.45;69.73;99936.63;4945659;29;20185;-83
2023/01/07 01:36:41;;;;;;;4.50;3.47;;;;;;;10.47;69.74;99944.41;4943921;29;20214;-84
2023/01/07 01:39:07;;;;;;;5.68;4.03;;;;;;;10.46;69.90;99942.72;4946137;29;20193;-84
2023/01/07 01:41:34;;;;;;;5.43;3.90;;;;;;;10.41;69.90;99933.31;4959497;29;20182;-84
2023/01/07 01:44:00;;;;;;;5.15;3.95;;;;;;;10.42;69.68;99928.91;4944556;29;20183;-84
2023/01/07 01:46:36;;;;;;;5.37;4.03;;;;;;;10.41;69.93;99935.09;4944161;29;20265;-84
2023/01/07 01:49:06;;;;;;;4.22;3.75;;;;;;;10.36;70.12;99935.34;4960757;28;20189;-84
2023/01/07 01:51:37;;;;;;;4.90;3.20;;;;;;;10.33;70.07;99925.03;4930376;29;20186;-84
2023/01/07 01:54:07;;;;;;;3.70;3.40;;;;;;;10.30;70.14;99922.59;4946320;29;20667;-84
2023/01/07 01:56:37;;;;;;;4.60;3.05;;;;;;;10.30;70.34;99927.84;4947025;29;20181;-85
2023/01/07 01:59:07;;;;;;;5.63;3.42;;;;;;;10.32;70.32;99930.38;4946818;29;20655;-84
2023/01/07 02:01:35;;;;;;;3.67;3.30;;;;;;;10.32;70.31;99925.13;4946226;29;20165;-84
2023/01/07 02:04:09;;;;;;;5.47;3.00;;;;;;;10.32;70.29;99909.38;4947280;29;20162;-85
2023/01/07 02:06:40;;;;;;;3.13;2.50;;;;;;;10.33;70.40;99913.69;4947684;29;20297;-85
2023/01/07 02:09:06;;;;;;;5.22;3.63;;;;;;;10.32;70.32;99910.22;4945746;29;20213;-83
2023/01/07 02:12:09;;;;;;;3.80;3.40;;;;;;;10.29;70.32;99907.78;4944843;29;20281;-83
2023/01/07 02:14:57;;;;;;;7.00;3.65;;;;;;;10.27;70.57;99908.75;4945417;29;20197;-85
2023/01/07 02:17:46;;;;;;;6.38;4.18;;;;;;;10.24;70.52;99907.16;4963282;28;20232;-85
2023/01/07 02:20:27;;;;;;;5.60;3.70;;;;;;;10.23;70.44;99902.81;4984697;28;20246;-83
2023/01/07 02:22:53;;;;;;;6.78;3.30;;;;;;;10.25;70.67;99897.50;4982680;28;20215;-83
2023/01/07 02:25:50;;;;;;;4.60;3.97;;;;;;;10.26;70.75;99909.69;4985089;28;20267;-85
2023/01/07 02:28:44;;;;;;;4.25;3.25;;;;;;;10.27;70.59;99904.38;4984460;28;20212;-83
2023/01/07 02:31:12;;;;;;;3.92;3.03;;;;;;;10.30;70.55;99892.88;4985358;28;20181;-83
2023/01/07 02:33:50;;;;;;;5.82;3.15;;;;;;;10.32;70.56;99883.97;4984488;28;20169;-83
2023/01/07 02:36:48;;;;;;;4.45;3.45;;;;;;;10.34;70.55;99883.84;4983768;28;20175;-84
2023/01/07 02:39:29;;;;;;;3.53;3.13;;;;;;;10.35;70.52;99880.31;4985147;28;20271;-86
2023/01/07 02:41:58;;;;;;;5.45;4.07;;;;;;;10.36;70.45;99882.00;4984387;28;20188;-84
2023/01/07 02:44:37;;;;;;;4.93;3.35;;;;;;;10.35;70.52;99881.16;4984823;28;20204;-84
2023/01/07 02:47:28;;;;;;;3.58;3.28;;;;;;;10.32;70.57;99878.72;4982931;28;20232;-83
2023/01/07 02:49:56;;;;;;;3.67;3.38;;;;;;;10.29;70.88;99871.03;4985271;28;20244;-84
2023/01/07 02:52:27;;;;;;;4.37;3.27;;;;;;;10.29;70.73;99862.28;4985418;28;20188;-83
2023/01/07 02:55:10;;;;;;;6.85;3.55;;;;;;;10.29;70.61;99862.28;4975793;28;20235;-83
2023/01/07 02:58:09;;;;;;;4.07;3.20;;;;;;;10.27;70.97;99870.25;4983380;28;20474;-85
2023/01/07 03:01:00;;;;;;;7.30;4.25;;;;;;;10.25;71.08;99855.50;4983620;28;20181;-83
2023/01/07 03:03:31;;;;;;;6.75;3.95;;;;;;;10.21;71.11;99854.84;4982844;28;20263;-83
2023/01/07 03:06:12;;;;;;;5.97;3.72;;;;;;;10.18;71.04;99855.03;4984419;28;20204;-84
2023/01/07 03:08:43;;;;;;;4.30;3.63;;;;;;;10.16;71.46;99847.22;4983874;28;20239;-84
2023/01/07 03:11:10;;;;;;;5.18;3.63;;;;;;;10.18;71.46;99847.16;4985922;28;20211;-83
2023/01/07 03:13:42;;;;;;;5.15;3.70;;;;;;;10.17;71.26;99845.44;4984574;28;20251;-85
2023/01/07 03:16:23;;;;;;;3.33;3.00;;;;;;;10.15;71.36;99835.03;4983067;28;20481;-83
2023/01/07 03:18:55;;;;;;;5.75;3.58;;;;;;;10.14;71.21;99828.09;4984819;28;20181;-84
2023/01/07 03:21:23;;;;;;;5.45;3.25;;;;;;;10.15;71.46;99834.16;4983832;28;20248;-84
2023/01/07 03:23:55;;;;;;;3.75;3.30;;;;;;;10.16;71.36;99826.22;4985158;28;20219;-82
2023/01/07 03:26:28;;;;;;;4.32;3.85;;;;;;;10.16;71.65;99820.13;4984919;28;20701;-84
2023/01/07 03:29:01;;;;;;;3.67;3.35;;;;;;;10.15;71.58;99819.28;4982846;28;20208;-84
2023/01/07 03:31:29;;;;;;;4.28;3.88;;;;;;;10.15;71.44;99818.41;4984864;28;20271;-84
2023/01/07 03:34:05;;;;;;;3.47;3.15;;;;;;;10.16;71.54;99812.25;4984032;28;20178;-84
2023/01/07 03:36:52;;;;;;;4.00;3.65;;;;;;;10.14;71.48;99811.50;4984149;28;20169;-83
2023/01/07 03:39:23;;;;;;;3.65;3.28;;;;;;;10.12;71.53;99808.94;4982457;28;20712;-83
2023/01/07 03:44:35;;;;;;;6.82;3.40;;;;;;;10.08;71.49;99804.81;4982302;28;20210;-84
2023/01/07 03:47:01;;;;;;;2.80;2.55;;;;;;;10.09;71.66;99798.63;4998009;23;20675;-82
2023/01/07 03:49:27;;;;;;;4.82;3.30;;;;;;;10.09;71.48;99796.00;4952772;28;20550;-81
2023/01/07 03:51:53;;;;;;;4.80;3.87;;;;;;;10.10;71.55;99804.72;4954510;28;20674;-81
2023/01/07 03:54:22;;;;;;;3.20;2.78;;;;;;;10.11;71.52;99794.16;4955148;28;20359;-81
2023/01/07 03:56:48;;;;;;;3.35;3.05;;;;;;;10.12;71.80;99800.22;4955908;28;20602;-81
2023/01/07 03:59:13;;;;;;;4.20;3.27;;;;;;;10.11;71.94;99790.69;4972677;28;20223;-81
2023/01/07 04:01:39;;;;;;;3.40;3.10;;;;;;;10.09;71.72;99793.38;4972318;28;20168;-81
2023/01/07 04:04:04;;;;;;;5.17;3.30;;;;;;;10.08;71.90;99796.94;4954610;28;20756;-81
2023/01/07 04:06:30;;;;;;;3.53;3.23;;;;;;;10.07;72.07;99791.78;4955038;28;20542;-81
2023/01/07 04:08:56;;;;;;;4.37;4.00;;;;;;;10.07;72.07;99794.41;4972485;28;20227;-81
2023/01/07 04:11:21;;;;;;;6.23;5.60;;;;;;;10.06;71.79;99787.47;4954977;28;20231;-81
2023/01/07 04:13:47;;;;;;;6.27;5.30;;;;;;;10.06;71.89;99779.59;4955446;28;20207;-81
2023/01/07 04:16:12;;;;;;;6.37;5.70;;;;;;;10.04;71.93;99781.47;4955204;28;20177;-81
2023/01/07 04:18:37;;;;;;;5.60;4.90;;;;;;;10.07;71.89;99781.28;4954667;28;20475;-81
2023/01/07 04:21:04;;;;;;;5.45;3.95;;;;;;;10.06;71.86;99776.97;4954940;28;20173;-81
2023/01/07 04:23:29;;;;;;;3.50;3.30;;;;;;;10.07;71.63;99773.41;4953190;28;20234;-81
2023/01/07 04:25:56;;;;;;;4.22;3.67;;;;;;;10.09;71.64;99774.16;4954153;28;20208;-81
2023/01/07 04:28:23;;;;;;;6.13;4.15;;;;;;;10.08;71.59;99777.75;4972497;28;20200;-81
2023/01/07 04:30:49;;;;;;;3.90;3.03;;;;;;;10.09;71.70;99774.16;4953648;28;20185;-81
2023/01/07 04:33:14;;;;;;;4.80;3.20;;;;;;;10.09;71.70;99761.06;4782176;28;5001521;-81
2023/01/07 04:35:40;;;;;;;7.00;4.30;;;;;;;10.09;71.55;99767.13;4954864;28;20183;-81
2023/01/07 04:38:06;;;;;;;3.93;3.13;;;;;;;10.09;71.72;99763.66;4954195;28;20204;-80
2023/01/07 04:40:32;;;;;;;6.90;3.90;;;;;;;10.10;71.58;99762.72;4954504;28;20642;-81
2023/01/07 04:42:59;;;;;;;4.03;3.60;;;;;;;10.11;71.53;99759.19;4954906;28;20436;-81
2023/01/07 04:45:25;;;;;;;4.03;3.30;;;;;;;10.13;71.49;99757.31;4954870;28;20212;-81
2023/01/07 04:47:54;;;;;;;5.60;2.97;;;;;;;10.12;71.51;99755.63;4954170;28;20468;-81
2023/01/07 04:50:20;;;;;;;4.20;3.25;;;;;;;10.11;71.40;99761.81;4954226;28;20181;-81
2023/01/07 04:52:45;;;;;;;3.90;3.10;;;;;;;10.07;71.75;99753.28;4955256;28;20551;-81
2023/01/07 04:55:11;;;;;;;4.50;4.00;;;;;;;10.08;71.73;99754.13;4954532;28;20267;-81
2023/01/07 04:57:37;;;;;;;3.57;3.27;;;;;;;10.07;71.58;99750.66;4954994;28;20486;-82
2023/01/07 05:00:03;;;;;;;3.87;3.17;;;;;;;10.08;71.58;99748.88;4955041;28;20503;-80
2023/01/07 05:02:29;;;;;;;7.13;3.80;;;;;;;10.08;71.63;99747.09;4954186;28;20188;-81
2023/01/07 05:04:55;;;;;;;5.63;3.03;;;;;;;10.10;71.53;99746.97;4954065;28;20592;-81
2023/01/07 05:07:20;;;;;;;3.47;3.17;;;;;;;10.12;71.64;99742.50;4954554;28;20638;-81
2023/01/07 05:09:46;;;;;;;6.13;3.55;;;;;;;10.13;71.68;99733.69;4950496;28;20197;-81
2023/01/07 05:12:12;;;;;;;5.20;3.53;;;;;;;10.14;71.54;99743.25;4952531;28;20657;-81
2023/01/07 05:14:37;;;;;;;4.20;3.70;;;;;;;10.13;71.58;99737.16;4968395;28;20519;-81
2023/01/07 05:17:03;;;;;;;5.33;3.40;;;;;;;10.13;71.43;99733.69;4952500;28;20177;-81
2023/01/07 05:19:30;;;;;;;6.63;3.13;;;;;;;10.12;71.68;99726.75;4954277;28;20235;-81
2023/01/07 05:21:55;;;;;;;3.63;2.90;;;;;;;10.12;71.39;99724.94;4955270;28;20189;-81
2023/01/07 05:24:21;;;;;;;5.00;3.50;;;;;;;10.12;71.53;99724.13;4956781;28;20207;-82
2023/01/07 05:26:46;;;;;;;5.23;4.83;;;;;;;10.11;71.55;99723.28;4958552;28;20182;-81
2023/01/07 05:29:14;;;;;;;4.13;3.72;;;;;;;10.12;71.61;99724.13;4958317;28;20201;-81
2023/01/07 05:31:41;;;;;;;3.92;3.58;;;;;;;10.11;71.52;99725.06;4958579;28;20175;-81
2023/01/07 05:34:07;;;;;;;4.07;3.53;;;;;;;10.11;71.68;99717.19;4975862;28;20177;-81
2023/01/07 05:36:33;;;;;;;4.87;3.63;;;;;;;10.06;71.84;99716.63;4958503;28;20169;-81
2023/01/07 05:38:58;;;;;;;6.00;3.03;;;;;;;10.02;71.75;99720.34;4957348;28;20192;-81
2023/01/07 05:41:24;;;;;;;5.10;4.60;;;;;;;10.01;71.93;99713.41;4957086;28;20196;-81
2023/01/07 05:43:49;;;;;;;3.70;3.30;;;;;;;10.00;71.79;99709.13;4957858;28;20189;-82
2023/01/07 05:46:15;;;;;;;4.20;3.47;;;;;;;9.97;71.99;99710.97;4975651;28;20201;-81
2023/01/07 05:48:40;;;;;;;3.43;3.23;;;;;;;9.99;71.86;99713.53;4974724;28;20236;-81
2023/01/07 05:51:06;;;;;;;5.23;3.50;;;;;;;10.00;71.69;99714.38;4975890;28;20275;-81
2023/01/07 05:53:32;;;;;;;3.63;3.33;;;;;;;10.01;71.62;99711.63;4975309;28;20177;-81
2023/01/07 05:55:59;;;;;;;4.20;3.15;;;;;;;10.03;71.62;99706.31;4974892;28;20172;-81
2023/01/07 05:58:25;;;;;;;5.60;3.55;;;;;;;10.00;71.56;99712.59;4975310;28;20203;-81
2023/01/07 06:00:50;;;;;;;4.38;3.90;;;;;;;9.97;71.80;99712.78;4975511;28;20224;-81
2023/01/07 06:03:16;;;;;;;6.93;5.00;;;;;;;9.97;71.78;99707.53;4974984;28;20216;-81
2023/01/07 06:05:41;;;;;;;11.83;8.17;;;;;;;9.98;71.62;99707.41;4975235;28;20311;-81
2023/01/07 06:08:06;;;;;;;33.03;21.10;;;;;;;9.98;71.58;99701.31;4975446;28;20200;-81
2023/01/07 06:10:32;;;;;;;35.97;20.67;;;;;;;9.98;71.51;99702.16;4974157;28;20180;-81
2023/01/07 06:12:57;;;;;;;30.83;18.50;;;;;;;10.01;71.55;99700.31;4975671;28;20231;-81
2023/01/07 06:15:23;;;;;;;14.77;10.87;;;;;;;10.01;71.67;99703.75;4975672;28;20173;-81
2023/01/07 06:17:48;;;;;;;13.47;9.60;;;;;;;10.02;71.47;99699.34;4974874;28;20204;-81
2023/01/07 06:20:14;;;;;;;9.33;7.90;;;;;;;10.02;71.47;99704.59;4974665;28;20911;-81
2023/01/07 06:22:41;;;;;;;9.07;6.30;;;;;;;10.03;71.60;99698.44;4974688;28;20800;-81
2023/01/07 06:25:08;;;;;;;10.68;6.35;;;;;;;10.02;71.40;99691.47;4974207;28;20707;-81
2023/01/07 06:27:33;;;;;;;6.22;5.20;;;;;;;10.02;71.58;99702.84;4974952;28;20204;-82
2023/01/07 06:29:58;;;;;;;8.80;5.70;;;;;;;10.03;71.71;99703.69;4974328;28;20169;-82
2023/01/07 06:32:24;;;;;;;7.20;5.60;;;;;;;10.04;71.42;99694.88;4974060;28;20633;-81
2023/01/07 06:34:49;;;;;;;8.97;6.17;;;;;;;10.03;71.69;99695.81;4955671;28;20211;-82
2023/01/07 06:37:16;;;;;;;10.47;5.50;;;;;;;10.01;71.57;99693.25;4973448;28;20299;-81
2023/01/07 06:39:42;;;;;;;7.30;5.32;;;;;;;10.01;71.70;99698.50;4974038;28;20185;-81
2023/01/07 06:42:07;;;;;;;7.70;5.87;;;;;;;10.02;71.74;99694.09;4974281;28;20185;-81
2023/01/07 06:44:33;;;;;;;8.03;5.37;;;;;;;10.01;71.44;99695.88;4973322;28;20236;-81
2023/01/07 06:46:58;;;;;;;6.97;3.17;;;;;;;9.99;71.46;99689.91;4972309;28;20183;-81
2023/01/07 06:49:24;;;;;;;4.33;2.97;;;;;;;9.95;71.57;99681.34;4973951;28;20593;-82
2023/01/07 06:51:49;;;;;;;3.63;3.30;;;;;;;9.94;71.37;99679.69;4973969;28;20264;-81
2023/01/07 06:54:14;;;;;;;6.13;3.73;;;;;;;9.91;71.44;99668.50;4956439;28;20499;-81
2023/01/07 06:56:40;;;;;;;5.33;4.83;;;;;;;9.90;71.45;99677.31;4974256;28;20196;-80
2023/01/07 06:59:05;;;;;;;8.10;4.80;;;;;;;9.89;71.25;99671.25;4974101;28;20228;-81
2023/01/07 07:01:30;;;;;;;5.17;4.27;;;;;;;9.89;71.41;99670.41;4973483;28;20188;-81
2023/01/07 07:03:56;;;;;;;4.20;3.37;;;;;;;9.87;71.51;99667.03;4974126;28;20251;-81
2023/01/07 07:06:21;;;;;;;2.40;2.20;;;;;;;9.84;71.22;99664.59;4956154;28;20200;-80
2023/01/07 07:08:46;;;;;;;4.10;3.50;;;;;;;9.80;71.03;99663.91;4973114;28;20707;-81
2023/01/07 07:11:12;;;;;;;4.07;3.23;;;;;;;9.72;71.00;99664.38;4974066;28;20196;-81
2023/01/07 07:13:37;;;;;;;6.27;3.03;;;;;;;9.63;71.13;99664.91;4973349;28;20173;-81
2023/01/07 07:16:03;;;;;;;3.30;2.97;;;;;;;9.60;71.25;99659.00;4971513;28;20519;-81
2023/01/07 07:18:29;;;;;;;5.53;2.97;;;;;;;9.58;71.23;99660.88;4974074;28;20211;-81
2023/01/07 07:20:55;;;;;;;3.25;2.92;;;;;;;9.59;71.32;99657.34;4973736;28;20192;-81
2023/01/07 07:23:20;;;;;;;4.50;3.40;;;;;;;9.57;71.23;99653.94;4973973;28;20271;-81
2023/01/07 07:25:46;;;;;;;3.40;3.10;;;;;;;9.53;71.15;99659.38;4972084;28;20240;-81
2023/01/07 07:28:11;;;;;;;4.60;3.27;;;;;;;9.50;71.45;99656.94;4973992;28;20193;-81
2023/01/07 07:30:37;;;;;;;5.23;2.67;;;;;;;9.47;71.41;99651.84;4973983;28;20833;-81
2023/01/07 07:33:03;;;;;;;3.97;2.77;;;;;;;9.47;71.44;99653.63;4974311;28;20256;-81
2023/01/07 07:35:30;;;;;;;3.28;2.97;;;;;;;9.48;71.27;99639.59;4973616;28;20438;-81
2023/01/07 07:37:55;;;;;;;2.70;2.33;;;;;;;9.45;71.45;99640.63;4973078;28;20200;-81
2023/01/07 07:40:20;;;;;;;2.30;1.60;;;;;;;9.44;71.24;99643.31;4973479;28;20169;-82
2023/01/07 07:42:46;;;;;;;3.50;2.03;;;;;;;9.46;71.31;99639.69;4972530;28;20181;-81
2023/01/07 07:45:11;;;;;;;3.90;2.53;;;;;;;9.50;71.16;99635.97;4972524;28;20205;-81
2023/01/07 07:47:37;;;;;;;2.70;1.63;;;;;;;9.57;70.69;99638.22;4972906;28;20612;-81
2023/01/07 07:50:02;;;;;;;3.33;2.93;;;;;;;9.58;70.63;99642.50;4972391;28;20242;-81
2023/01/07 07:52:28;;;;;;;7.10;2.90;;;;;;;9.59;70.87;99631.94;4972528;28;20250;-81
2023/01/07 07:54:53;;;;;;;3.67;3.37;;;;;;;9.59;70.68;99633.72;4972652;28;20428;-81
2023/01/07 07:57:19;;;;;;;3.23;2.63;;;;;;;9.59;70.73;99625.88;4972082;28;20728;-80
2023/01/07 07:59:44;;;;;;;4.40;3.33;;;;;;;9.57;70.78;99625.94;4971838;28;20523;-80
2023/01/07 08:02:12;;;;;;;3.87;3.10;;;;;;;9.57;70.92;99622.47;4972719;28;20165;-81
2023/01/07 08:04:37;;;;;;;3.25;2.42;;;;;;;9.52;71.06;99618.34;4972043;28;20180;-81
2023/01/07 08:07:03;;;;;;;3.00;2.40;;;;;;;9.53;71.03;99619.19;4972148;28;20443;-81
2023/01/07 08:09:28;;;;;;;2.93;2.50;;;;;;;9.57;71.17;99619.84;4972659;28;20172;-81
2023/01/07 08:11:54;;;;;;;4.00;2.97;;;;;;;9.61;70.85;99619.56;4970876;28;20550;-81
2023/01/07 08:14:19;;;;;;;4.10;2.63;;;;;;;9.69;70.85;99606.00;4971070;28;20509;-81
2023/01/07 08:16:45;;;;;;;3.43;3.03;;;;;;;9.76;70.82;99604.69;4970473;28;20734;-81
2023/01/07 08:19:10;;;;;;;5.63;3.00;;;;;;;9.83;70.64;99590.28;4970522;28;20224;-81
2023/01/07 08:21:36;;;;;;;4.13;2.40;;;;;;;9.88;70.13;99589.97;4971381;28;20180;-81
2023/01/07 08:24:01;;;;;;;3.50;2.53;;;;;;;9.96;69.76;99591.22;4971731;28;20176;-81
2023/01/07 08:26:27;;;;;;;2.93;2.27;;;;;;;10.02;69.71;99590.00;4970944;28;20739;-80
2023/01/07 08:28:53;;;;;;;2.33;2.13;;;;;;;10.12;69.44;99590.25;4971353;28;20212;-81
2023/01/07 08:31:18;;;;;;;3.60;3.17;;;;;;;10.23;69.01;99579.09;4971981;28;20181;-80
2023/01/07 08:33:43;;;;;;;3.00;2.30;;;;;;;10.35;68.95;99579.22;4954674;28;20429;-80
2023/01/07 08:36:09;;;;;;;3.07;2.70;;;;;;;10.46;68.72;99575.91;4969293;28;20172;-80
2023/01/07 08:38:35;;;;;;;2.90;2.60;;;;;;;10.56;68.46;99576.16;4969627;28;20731;-80
2023/01/07 08:41:00;;;;;;;7.00;2.70;;;;;;;10.65;68.21;99570.31;4969160;28;20204;-80
2023/01/07 08:43:26;;;;;;;2.27;2.07;;;;;;;10.74;68.12;99574.97;4969136;28;20633;-80
2023/01/07 08:45:52;;;;;;;2.40;2.20;;;;;;;10.79;68.10;99567.63;4969377;28;20231;-80
2023/01/07 08:48:18;;;;;;;2.65;2.45;;;;;;;10.82;68.01;99570.03;4969184;28;20224;-80
2023/01/07 08:50:51;;;;;;;2.72;2.28;;;;;;;11.04;68.21;99566.00;4968953;28;20185;-80
2023/01/07 08:53:21;;;;;;;2.80;2.55;;;;;;;11.79;67.42;99560.09;4968960;28;20228;-80
2023/01/07 08:55:47;;;;;;;3.05;2.00;;;;;;;12.90;64.59;99551.22;4969251;28;20700;-80
2023/01/07 08:58:13;;;;;;;2.17;2.07;;;;;;;13.95;62.18;99554.72;4972293;28;20188;-80
2023/01/07 09:00:39;;;;;;;3.03;2.17;;;;;;;14.77;60.04;99541.13;4974055;28;20432;-80
2023/01/07 09:03:04;;;;;;;2.87;2.30;;;;;;;15.05;59.05;99540.53;4974471;28;20184;-80
2023/01/07 09:05:29;;;;;;;1.90;1.67;;;;;;;15.75;57.52;99534.72;4973291;28;20475;-80
2023/01/07 09:07:55;;;;;;;3.57;1.80;;;;;;;16.77;54.91;99525.66;4974263;28;20210;-80
2023/01/07 09:10:21;;;;;;;3.57;2.60;;;;;;;17.83;52.22;99523.81;4974991;28;20204;-80
2023/01/07 09:12:47;;;;;;;6.53;4.37;;;;;;;18.74;49.43;99518.53;4975239;28;20928;-81
2023/01/07 09:15:12;;;;;;;5.57;5.00;;;;;;;19.46;46.78;99521.06;4975117;28;20431;-80
2023/01/07 09:17:38;;;;;;;6.80;5.37;;;;;;;20.00;44.15;99521.72;4975322;28;20581;-80
2023/01/07 09:20:05;;;;;;;4.73;4.10;;;;;;;20.47;42.85;99515.06;4975946;28;20184;-80
2023/01/07 09:22:32;;;;;;;7.10;4.97;;;;;;;20.83;41.36;99504.94;4974672;28;20282;-80
2023/01/07 09:24:57;;;;;;;5.97;4.13;;;;;;;20.87;39.98;99506.28;4974439;28;20840;-81
2023/01/07 09:27:25;;;;;;;7.37;4.37;;;;;;;20.31;39.84;99516.69;4974770;28;20535;-81
2023/01/07 09:29:52;;;;;;;10.03;5.20;;;;;;;19.35;40.41;99510.69;4975136;28;20185;-80
2023/01/07 09:32:17;;;;;;;9.00;4.73;;;;;;;18.40;42.14;99515.66;4974609;28;20458;-80
2023/01/07 09:34:43;;;;;;;7.40;4.07;;;;;;;17.62;43.52;99520.50;4974029;28;20872;-80
2023/01/07 09:37:08;;;;;;;5.30;4.13;;;;;;;17.06;44.30;99522.13;4973933;28;20184;-80
2023/01/07 09:39:33;;;;;;;4.63;3.00;;;;;;;16.59;44.73;99514.84;4973976;28;20673;-80
2023/01/07 09:42:33;;;;;;;2.97;2.07;;;;;;;15.91;45.81;99516.53;4973239;28;20549;-81
2023/01/07 09:45:18;;;;;;;3.80;1.98;;;;;;;15.25;47.08;99522.13;4973298;28;20296;-80
2023/01/07 09:47:53;;;;;;;3.88;3.28;;;;;;;15.15;47.00;99523.88;4974491;28;20283;-82
2023/01/07 09:50:27;;;;;;;3.08;1.65;;;;;;;15.23;46.44;99511.69;4974007;28;20207;-83
2023/01/07 09:52:59;;;;;;;4.30;2.22;;;;;;;15.24;46.34;99509.88;4973872;28;20285;-81
2023/01/07 09:55:34;;;;;;;3.50;3.20;;;;;;;15.43;45.97;99511.81;4974048;28;20180;-80
2023/01/07 09:58:00;;;;;;;3.20;2.88;;;;;;;15.76;45.07;99515.19;4974410;28;20196;-80
2023/01/07 10:00:26;;;;;;;4.17;3.20;;;;;;;16.11;44.44;99498.88;4974143;28;20557;-80
2023/01/07 10:03:07;;;;;;;3.50;3.17;;;;;;;16.99;42.59;99498.00;4974471;28;20177;-82
2023/01/07 10:05:50;;;;;;;5.10;2.50;;;;;;;18.00;40.60;99494.78;4974531;28;20617;-80
2023/01/07 10:08:39;;;;;;;1.83;1.45;;;;;;;18.77;38.84;99490.78;4928828;28;20787;-83
2023/01/07 10:11:17;;;;;;;3.28;1.83;;;;;;;19.44;37.48;99491.09;4963656;28;20219;-85
2023/01/07 10:13:52;;;;;;;3.53;2.80;;;;;;;19.84;36.82;99481.66;4976919;28;20216;-81
2023/01/07 10:16:51;;;;;;;3.75;2.15;;;;;;;20.09;36.22;99471.91;4960026;28;20672;-81
2023/01/07 10:19:38;;;;;;;2.92;2.00;;;;;;;19.72;36.83;99466.97;4975644;28;20287;-81
2023/01/07 10:22:21;;;;;;;3.08;1.85;;;;;;;19.18;37.78;99467.97;4975065;28;20177;-82
2023/01/07 10:24:55;;;;;;;2.80;2.08;;;;;;;18.71;38.73;99460.28;4959126;28;20188;-81
2023/01/07 10:27:48;;;;;;;2.85;1.95;;;;;;;18.26;39.71;99452.38;4976956;28;20231;-81
2023/01/07 10:30:20;;;;;;;2.42;2.00;;;;;;;17.76;40.05;99450.94;4970238;28;20196;-81
2023/01/07 10:32:48;;;;;;;2.42;2.22;;;;;;;17.07;41.53;99446.03;4974042;28;20259;-81
2023/01/07 10:35:19;;;;;;;2.00;1.50;;;;;;;16.58;42.62;99444.25;4975125;28;20660;-82
2023/01/07 10:37:45;;;;;;;2.85;1.60;;;;;;;16.09;43.62;99429.25;4974880;28;20243;-84
2023/01/07 10:40:38;;;;;;;4.10;1.97;;;;;;;15.61;44.62;99429.97;4975346;28;20188;-81
2023/01/07 10:43:29;;;;;;;2.05;1.85;;;;;;;15.22;45.73;99430.63;4974104;28;20177;-84
2023/01/07 10:46:25;;;;;;;2.15;2.00;;;;;;;14.97;46.37;99423.94;4956891;28;20217;-85
2023/01/07 10:49:10;;;;;;;2.40;2.20;;;;;;;14.81;47.07;99426.22;4975828;28;20239;-85
2023/01/07 10:51:53;;;;;;;3.10;1.83;;;;;;;14.62;47.57;99416.34;4975396;28;20218;-86
2023/01/07 10:54:27;;;;;;;6.55;2.28;;;;;;;14.52;48.15;99410.09;4975565;28;20187;-83
2023/01/07 10:57:09;;;;;;;1.80;1.70;;;;;;;14.38;48.27;99414.72;4972921;28;20192;-84
2023/01/07 10:59:35;;;;;;;1.50;1.25;;;;;;;14.22;48.47;99402.91;4972295;28;20177;-83
2023/01/07 11:02:02;;;;;;;2.50;2.00;;;;;;;14.13;48.64;99401.88;4974090;28;20274;-83
2023/01/07 11:04:28;;;;;;;2.75;2.03;;;;;;;14.09;48.86;99400.44;4955064;28;20438;-84
2023/01/07 11:07:05;;;;;;;1.93;1.70;;;;;;;14.10;48.73;99399.47;4971942;28;20212;-84
2023/01/07 11:09:38;;;;;;;2.03;1.35;;;;;;;14.09;48.99;99392.50;4957791;28;20724;-84
2023/01/07 11:12:18;;;;;;;1.70;1.40;;;;;;;14.06;48.98;99390.94;4975978;28;20642;-84
2023/01/07 11:14:46;;;;;;;2.40;1.63;;;;;;;14.05;48.92;99391.09;4976753;28;20585;-86
2023/01/07 11:17:40;;;;;;;2.15;1.70;;;;;;;14.08;48.62;99385.56;4976900;28;20176;-84
2023/01/07 11:20:07;;;;;;;1.42;1.27;;;;;;;14.09;48.99;99387.22;4975200;28;20412;-85
2023/01/07 11:22:36;;;;;;;2.38;2.17;;;;;;;14.07;49.04;99381.22;4974445;28;20181;-84
2023/01/07 11:25:24;;;;;;;2.08;1.70;;;;;;;14.07;48.90;99374.16;4975531;28;20669;-84
2023/01/07 11:27:51;;;;;;;1.98;1.80;;;;;;;14.08;48.88;99367.06;4958731;28;20208;-84
2023/01/07 11:30:25;;;;;;;1.80;1.70;;;;;;;14.10;48.91;99362.50;4975166;28;20327;-85
2023/01/07 11:33:00;;;;;;;2.15;1.92;;;;;;;14.12;48.53;99360.56;4975601;28;20819;-85
2023/01/07 11:35:29;;;;;;;1.88;1.65;;;;;;;14.11;48.76;99349.16;4957751;28;20172;-83
2023/01/07 11:37:56;;;;;;;2.00;1.63;;;;;;;14.08;48.50;99346.78;4957071;28;20204;-84
2023/01/07 11:40:25;;;;;;;1.70;1.60;;;;;;;14.10;48.53;99338.75;4973731;28;20176;-84
2023/01/07 11:43:19;;;;;;;2.70;1.70;;;;;;;14.13;48.43;99339.31;4974033;28;20181;-84
2023/01/07 11:45:51;;;;;;;3.17;1.73;;;;;;;14.17;48.71;99334.59;4974507;28;20701;-86
2023/01/07 11:48:29;;;;;;;2.15;1.50;;;;;;;14.19;48.64;99335.31;4957230;28;20244;-86
2023/01/07 11:50:57;;;;;;;3.28;1.90;;;;;;;14.19;48.72;99332.69;4972989;28;20370;-84